This is the latest recevied weather packets stored in our database for station/object E24TVS-1. If no packets are shown the sender has not sent any weather packets the latest 10 day(s).
| Time | Temp. | Humidity | Pressure | Rain* | Wind** | Luminosity | Snow |
|---|---|---|---|---|---|---|---|
| 1777836084 | 30.56° C | 62% | 989 hPa | - | - | 0 W/m² | - |
| 1777835462 | 30.56° C | 61% | 989 hPa | - | - | 0 W/m² | - |
| 1777834840 | 30.56° C | 62% | 989 hPa | - | - | 0 W/m² | - |
| 1777834217 | 29.44° C | 64% | 989 hPa | - | - | 0 W/m² | - |
| 1777833594 | 29.44° C | 64% | 989 hPa | - | - | 0 W/m² | - |
| 1777832971 | 29.44° C | 64% | 989 hPa | - | - | 0 W/m² | - |
| 1777832348 | 28.89° C | 64% | 989 hPa | - | - | 0 W/m² | - |
| 1777831725 | 29.44° C | 63% | 990 hPa | - | - | 0 W/m² | - |
| 1777831103 | 29.44° C | 63% | 990 hPa | - | - | 0 W/m² | - |
| 1777830480 | 30° C | 60% | 990 hPa | - | - | 0 W/m² | - |
| 1777829857 | 30° C | 60% | 990 hPa | - | - | 0 W/m² | - |
| 1777829235 | 29.44° C | 61% | 990 hPa | - | - | 0 W/m² | - |
| 1777828612 | 29.44° C | 61% | 990 hPa | - | - | 0 W/m² | - |
| 1777827990 | 28.89° C | 63% | 990 hPa | - | - | 0 W/m² | - |
| 1777827367 | 28.89° C | 63% | 990 hPa | - | - | 0 W/m² | - |
| 1777826745 | 28.89° C | 64% | 990 hPa | - | - | 0 W/m² | - |
| 1777826121 | 29.44° C | 65% | 990 hPa | - | - | 0 W/m² | - |
| 1777825499 | 28.89° C | 66% | 991 hPa | - | - | 0 W/m² | - |
| 1777824876 | 29.44° C | 66% | 991 hPa | - | - | 0 W/m² | - |
| 1777824253 | 30° C | 64% | 991 hPa | - | - | 0 W/m² | - |
| 1777823630 | 30.56° C | 66% | 990 hPa | - | - | 0 W/m² | - |
| 1777823008 | 30.56° C | 68% | 990 hPa | - | - | 0 W/m² | - |
| 1777822385 | 31.11° C | 65% | 990 hPa | - | - | 0 W/m² | - |
| 1777821763 | 31.67° C | 62% | 990 hPa | - | - | 0 W/m² | - |
| 1777821140 | 31.67° C | 61% | 990 hPa | - | - | 0 W/m² | - |
* Rain since midnight (hover to see other rain measurements)
** Current wind speed in m/s (hover to see current wind gust speed)